DLH003 CYFB-EDDL
Flight info
| Callsign | DLH003 |
|---|---|
| Flight time | N/A |
| Altitude | 37000 |
| Route | DUTUM DCT KENKI/M083F370 DCT 67N057W 69N043W 67N029W/M083F390 65N017W 63N011W DCT OSBON/N0486F390 DCT MOCHA DCT FORTY DCT GIBSU DCT SUTEB DCT PIPQU DCT PISAP PISAP1A |
| Aircraft | B77L/H-SDE1E2E3FGHIJ2J3J4J5M1RWXY/LB1D1 |
Departure
| Time | N/A |
|---|---|
| Airport | Iqaluit Airport (CYFB) |
Arrival
| Time | 2026-05-03 23:26 |
|---|---|
| Airport | Düsseldorf Airport (EDDL) |
| Time | Latitude | Longitude | Altitude | Speed | Heading |
|---|---|---|---|---|---|
| 2026-05-03 20:15 | 65.88927 | -25.51201 | 37040 ft | 553 kts | 108° |
| 2026-05-03 20:15 | 65.86465 | -25.33384 | 37026 ft | 553 kts | 108° |
| 2026-05-03 20:16 | 65.83981 | -25.15593 | 37027 ft | 553 kts | 108° |
| 2026-05-03 20:16 | 65.81480 | -24.97860 | 37020 ft | 552 kts | 108° |
| 2026-05-03 20:17 | 65.78962 | -24.80184 | 37018 ft | 552 kts | 108° |
| 2026-05-03 20:17 | 65.76422 | -24.62543 | 37020 ft | 552 kts | 108° |
| 2026-05-03 20:18 | 65.75147 | -24.53750 | 37017 ft | 551 kts | 108° |
| 2026-05-03 20:19 | 65.74618 | -24.50114 | 37018 ft | 551 kts | 109° |
| 2026-05-03 20:19 | 65.72044 | -24.32531 | 37018 ft | 552 kts | 109° |
| 2026-05-03 20:20 | 65.69451 | -24.14986 | 37014 ft | 552 kts | 109° |
| 2026-05-03 20:20 | 65.66838 | -23.97483 | 37013 ft | 551 kts | 109° |
| 2026-05-03 20:21 | 65.64210 | -23.80039 | 36997 ft | 551 kts | 109° |
| 2026-05-03 20:21 | 65.61555 | -23.62601 | 37002 ft | 552 kts | 109° |
| 2026-05-03 20:22 | 65.58880 | -23.45189 | 37009 ft | 552 kts | 110° |
| 2026-05-03 20:22 | 65.56184 | -23.27798 | 37040 ft | 553 kts | 110° |
| 2026-05-03 20:23 | 65.53465 | -23.10428 | 37019 ft | 553 kts | 110° |
| 2026-05-03 20:23 | 65.50744 | -22.93213 | 37011 ft | 552 kts | 110° |
| 2026-05-03 20:24 | 65.47992 | -22.75953 | 37003 ft | 551 kts | 110° |
| 2026-05-03 20:24 | 65.45220 | -22.58736 | 37008 ft | 552 kts | 111° |
| 2026-05-03 20:25 | 65.42429 | -22.41555 | 37015 ft | 552 kts | 111° |
| 2026-05-03 20:25 | 65.39615 | -22.24389 | 37013 ft | 553 kts | 111° |
| 2026-05-03 20:26 | 65.36776 | -22.07223 | 37018 ft | 554 kts | 111° |
| 2026-05-03 20:26 | 65.33914 | -21.90074 | 37011 ft | 554 kts | 111° |
| 2026-05-03 20:27 | 65.31028 | -21.72941 | 36980 ft | 555 kts | 111° |
| 2026-05-03 20:27 | 65.28126 | -21.55864 | 37007 ft | 555 kts | 112° |
| 2026-05-03 20:28 | 65.25218 | -21.38898 | 37017 ft | 555 kts | 112° |
| 2026-05-03 20:28 | 65.22273 | -21.21867 | 37004 ft | 556 kts | 112° |
| 2026-05-03 20:29 | 65.19304 | -21.04846 | 37017 ft | 557 kts | 112° |
| 2026-05-03 20:29 | 65.16313 | -20.87851 | 36989 ft | 557 kts | 112° |
| 2026-05-03 20:30 | 65.13305 | -20.70905 | 36961 ft | 556 kts | 112° |
| 2026-05-03 20:30 | 65.10283 | -20.54023 | 36996 ft | 555 kts | 112° |
| 2026-05-03 20:31 | 65.07241 | -20.37178 | 36990 ft | 555 kts | 113° |
| 2026-05-03 20:31 | 65.04182 | -20.20377 | 36988 ft | 555 kts | 113° |
| 2026-05-03 20:32 | 65.01104 | -20.03620 | 37020 ft | 555 kts | 113° |
| 2026-05-03 20:32 | 64.98028 | -19.87003 | 36987 ft | 555 kts | 113° |
| 2026-05-03 20:33 | 64.94912 | -19.70316 | 36926 ft | 554 kts | 113° |
| 2026-05-03 20:33 | 64.91783 | -19.53703 | 36972 ft | 554 kts | 114° |
| 2026-05-03 20:34 | 64.88635 | -19.37116 | 36980 ft | 556 kts | 114° |
| 2026-05-03 20:34 | 64.85457 | -19.20511 | 36982 ft | 557 kts | 114° |
| 2026-05-03 20:35 | 64.82792 | -19.06690 | 36982 ft | 559 kts | 114° |
| 2026-05-03 20:35 | 64.79040 | -18.87396 | 36971 ft | 558 kts | 114° |
| 2026-05-03 20:36 | 64.76334 | -18.73586 | 36969 ft | 555 kts | 114° |
| 2026-05-03 20:36 | 64.73105 | -18.57230 | 36971 ft | 552 kts | 114° |
| 2026-05-03 20:37 | 64.69867 | -18.40959 | 36980 ft | 552 kts | 114° |
| 2026-05-03 20:37 | 64.66609 | -18.24716 | 36984 ft | 553 kts | 115° |
| 2026-05-03 20:38 | 64.63343 | -18.08561 | 36969 ft | 554 kts | 115° |
| 2026-05-03 20:38 | 64.60034 | -17.92323 | 37005 ft | 556 kts | 115° |
| 2026-05-03 20:39 | 64.56699 | -17.76077 | 36993 ft | 556 kts | 115° |
| 2026-05-03 20:39 | 64.53343 | -17.59861 | 36971 ft | 556 kts | 115° |
| 2026-05-03 20:40 | 64.49973 | -17.43707 | 36977 ft | 556 kts | 115° |
| 2026-05-03 20:40 | 64.46581 | -17.27566 | 36973 ft | 556 kts | 115° |
| 2026-05-03 20:41 | 64.43180 | -17.11507 | 36984 ft | 555 kts | 116° |
| 2026-05-03 20:41 | 64.39781 | -16.95581 | 36983 ft | 555 kts | 116° |
| 2026-05-03 20:42 | 64.38063 | -16.87577 | 36981 ft | 555 kts | 116° |
| 2026-05-03 20:42 | 64.35893 | -16.77508 | 36991 ft | 555 kts | 116° |
| 2026-05-03 20:43 | 64.32434 | -16.61560 | 36977 ft | 555 kts | 116° |
| 2026-05-03 20:43 | 64.28957 | -16.45647 | 36981 ft | 556 kts | 116° |
| 2026-05-03 20:44 | 64.25480 | -16.29852 | 36991 ft | 556 kts | 116° |
| 2026-05-03 20:44 | 64.21962 | -16.13985 | 36990 ft | 558 kts | 116° |
| 2026-05-03 20:45 | 64.18421 | -15.98135 | 37024 ft | 558 kts | 117° |
| 2026-05-03 20:45 | 64.14863 | -15.82323 | 36989 ft | 557 kts | 117° |
| 2026-05-03 20:46 | 64.11274 | -15.66499 | 36958 ft | 555 kts | 117° |
| 2026-05-03 20:46 | 64.07722 | -15.50951 | 36984 ft | 555 kts | 117° |
| 2026-05-03 20:47 | 64.04130 | -15.35339 | 36986 ft | 556 kts | 117° |
| 2026-05-03 20:47 | 64.00519 | -15.19755 | 36991 ft | 556 kts | 117° |
| 2026-05-03 20:48 | 63.96888 | -15.04197 | 36985 ft | 556 kts | 118° |
| 2026-05-03 20:48 | 63.93236 | -14.88662 | 36990 ft | 555 kts | 118° |
| 2026-05-03 20:49 | 63.89581 | -14.73225 | 36987 ft | 554 kts | 118° |
| 2026-05-03 20:49 | 63.85925 | -14.57890 | 36978 ft | 550 kts | 118° |
| 2026-05-03 20:49 | 63.84121 | -14.50366 | 36957 ft | 536 kts | 118° |
| 2026-05-03 20:50 | 63.82362 | -14.43058 | 36967 ft | 522 kts | 118° |
| 2026-05-03 20:50 | 63.78902 | -14.28744 | 36985 ft | 517 kts | 118° |
| 2026-05-03 20:51 | 63.75437 | -14.14500 | 36981 ft | 517 kts | 118° |
| 2026-05-03 20:51 | 63.71970 | -14.00339 | 37007 ft | 518 kts | 119° |
| 2026-05-03 20:52 | 63.68466 | -13.86121 | 36947 ft | 518 kts | 119° |
| 2026-05-03 20:52 | 63.64956 | -13.71973 | 36976 ft | 517 kts | 119° |
| 2026-05-03 20:53 | 63.61433 | -13.57858 | 36982 ft | 517 kts | 119° |
| 2026-05-03 20:53 | 63.57898 | -13.43791 | 36975 ft | 517 kts | 119° |
| 2026-05-03 20:54 | 63.54351 | -13.29763 | 36980 ft | 517 kts | 119° |
| 2026-05-03 20:54 | 63.49021 | -13.08851 | 37001 ft | 518 kts | 120° |
| 2026-05-03 20:55 | 63.45434 | -12.94885 | 36950 ft | 518 kts | 120° |
| 2026-05-03 20:55 | 63.41835 | -12.80964 | 36974 ft | 516 kts | 120° |
| 2026-05-03 20:56 | 63.38233 | -12.67118 | 36974 ft | 515 kts | 120° |
| 2026-05-03 20:56 | 63.34619 | -12.53307 | 36978 ft | 515 kts | 120° |
| 2026-05-03 20:57 | 63.30997 | -12.39558 | 36972 ft | 515 kts | 120° |
| 2026-05-03 20:57 | 63.27386 | -12.25931 | 36973 ft | 515 kts | 120° |
| 2026-05-03 20:58 | 63.23738 | -12.12248 | 36979 ft | 515 kts | 121° |
| 2026-05-03 20:58 | 63.20078 | -11.98604 | 36969 ft | 513 kts | 121° |
| 2026-05-03 20:59 | 63.16424 | -11.85062 | 36965 ft | 512 kts | 121° |
| 2026-05-03 20:59 | 63.12752 | -11.71540 | 36966 ft | 511 kts | 121° |
| 2026-05-03 21:00 | 63.09704 | -11.60377 | 36966 ft | 511 kts | 121° |
| 2026-05-03 21:00 | 63.05424 | -11.44794 | 36970 ft | 510 kts | 121° |
| 2026-05-03 21:01 | 63.01727 | -11.31420 | 37002 ft | 511 kts | 122° |
| 2026-05-03 21:01 | 62.98012 | -11.18063 | 36933 ft | 511 kts | 122° |
| 2026-05-03 21:02 | 62.94285 | -11.04735 | 36962 ft | 510 kts | 122° |
| 2026-05-03 21:02 | 62.90581 | -10.91572 | 36960 ft | 510 kts | 122° |
| 2026-05-03 21:03 | 62.86846 | -10.78375 | 36964 ft | 509 kts | 122° |
| 2026-05-03 21:03 | 62.83095 | -10.65198 | 36959 ft | 509 kts | 122° |
| 2026-05-03 21:04 | 62.79336 | -10.52073 | 36960 ft | 509 kts | 122° |
| 2026-05-03 21:04 | 62.75564 | -10.38977 | 36975 ft | 509 kts | 123° |
| 2026-05-03 21:05 | 62.71784 | -10.25929 | 36950 ft | 508 kts | 123° |
| 2026-05-03 21:05 | 62.68004 | -10.12950 | 36947 ft | 507 kts | 123° |
| 2026-05-03 21:06 | 62.64217 | -10.00029 | 36948 ft | 506 kts | 123° |
| 2026-05-03 21:06 | 62.60449 | -9.87240 | 36947 ft | 505 kts | 123° |
| 2026-05-03 21:07 | 62.56651 | -9.74426 | 36955 ft | 505 kts | 123° |
| 2026-05-03 21:07 | 62.52844 | -9.61650 | 36951 ft | 505 kts | 123° |
| 2026-05-03 21:08 | 62.49022 | -9.48900 | 36929 ft | 505 kts | 124° |
| 2026-05-03 21:08 | 62.45188 | -9.36175 | 36934 ft | 504 kts | 124° |
| 2026-05-03 21:09 | 62.41388 | -9.23632 | 36921 ft | 491 kts | 124° |
| 2026-05-03 21:09 | 62.37667 | -9.11420 | 36935 ft | 486 kts | 124° |
| 2026-05-03 21:10 | 62.33934 | -8.99240 | 36962 ft | 487 kts | 124° |
| 2026-05-03 21:10 | 62.30187 | -8.87076 | 36942 ft | 488 kts | 124° |
| 2026-05-03 21:11 | 62.26420 | -8.74908 | 36964 ft | 489 kts | 125° |
| 2026-05-03 21:11 | 62.22639 | -8.62764 | 36943 ft | 489 kts | 125° |
| 2026-05-03 21:12 | 62.18855 | -8.50669 | 36937 ft | 488 kts | 125° |
| 2026-05-03 21:12 | 62.15091 | -8.38704 | 36935 ft | 487 kts | 125° |
| 2026-05-03 21:13 | 62.11296 | -8.26703 | 36935 ft | 486 kts | 126° |
| 2026-05-03 21:13 | 62.07502 | -8.14766 | 36936 ft | 486 kts | 126° |
| 2026-05-03 21:14 | 62.03699 | -8.02865 | 36924 ft | 485 kts | 126° |
| 2026-05-03 21:14 | 61.99891 | -7.91012 | 36873 ft | 485 kts | 126° |
| 2026-05-03 21:15 | 61.96081 | -7.79212 | 36924 ft | 484 kts | 126° |
| 2026-05-03 21:15 | 61.92259 | -7.67432 | 36912 ft | 485 kts | 126° |
| 2026-05-03 21:16 | 61.88413 | -7.55645 | 36919 ft | 486 kts | 126° |
| 2026-05-03 21:16 | 61.84544 | -7.43843 | 36917 ft | 488 kts | 126° |
| 2026-05-03 21:17 | 61.81317 | -7.34048 | 36915 ft | 489 kts | 126° |
| 2026-05-03 21:17 | 61.76783 | -7.20354 | 36911 ft | 489 kts | 126° |
| 2026-05-03 21:18 | 61.72860 | -7.08572 | 36886 ft | 489 kts | 127° |
| 2026-05-03 21:18 | 61.68956 | -6.96904 | 36902 ft | 486 kts | 127° |
| 2026-05-03 21:19 | 61.65056 | -6.85306 | 36903 ft | 484 kts | 127° |
| 2026-05-03 21:19 | 61.61185 | -6.73855 | 36910 ft | 482 kts | 127° |
| 2026-05-03 21:20 | 61.57300 | -6.62420 | 36912 ft | 480 kts | 127° |
| 2026-05-03 21:20 | 61.53413 | -6.51036 | 36917 ft | 479 kts | 127° |
| 2026-05-03 21:21 | 61.49522 | -6.39695 | 36928 ft | 480 kts | 127° |
| 2026-05-03 21:21 | 61.45606 | -6.28338 | 36940 ft | 481 kts | 128° |
| 2026-05-03 21:22 | 61.41676 | -6.16995 | 36927 ft | 482 kts | 128° |
| 2026-05-03 21:22 | 61.37752 | -6.05727 | 36923 ft | 483 kts | 128° |
| 2026-05-03 21:23 | 61.33793 | -5.94410 | 36923 ft | 483 kts | 128° |
| 2026-05-03 21:23 | 61.30468 | -5.84949 | 36921 ft | 483 kts | 128° |
| 2026-05-03 21:24 | 61.26512 | -5.73744 | 36922 ft | 483 kts | 128° |
| 2026-05-03 21:24 | 61.22531 | -5.62520 | 36922 ft | 482 kts | 128° |
| 2026-05-03 21:25 | 61.18548 | -5.51351 | 36926 ft | 481 kts | 129° |
| 2026-05-03 21:25 | 61.14565 | -5.40231 | 36916 ft | 480 kts | 129° |
| 2026-05-03 21:26 | 61.10580 | -5.29154 | 36919 ft | 479 kts | 129° |
| 2026-05-03 21:26 | 61.06596 | -5.18135 | 36919 ft | 478 kts | 129° |
| 2026-05-03 21:27 | 61.02610 | -5.07159 | 36917 ft | 477 kts | 129° |
| 2026-05-03 21:27 | 60.98641 | -4.96297 | 36915 ft | 477 kts | 129° |
| 2026-05-03 21:28 | 60.94618 | -4.85443 | 36879 ft | 477 kts | 129° |
| 2026-05-03 21:28 | 60.90581 | -4.74619 | 36909 ft | 476 kts | 130° |
| 2026-05-03 21:29 | 60.86543 | -4.63828 | 36921 ft | 476 kts | 130° |
| 2026-05-03 21:29 | 60.82494 | -4.53047 | 36925 ft | 476 kts | 130° |
| 2026-05-03 21:30 | 60.78442 | -4.42306 | 36908 ft | 476 kts | 130° |
| 2026-05-03 21:30 | 60.74381 | -4.31591 | 36906 ft | 476 kts | 130° |
| 2026-05-03 21:31 | 60.70315 | -4.20914 | 36909 ft | 476 kts | 130° |
| 2026-05-03 21:31 | 60.66246 | -4.10274 | 36898 ft | 470 kts | 130° |
| 2026-05-03 21:32 | 60.62286 | -3.99962 | 36894 ft | 455 kts | 131° |
| 2026-05-03 21:32 | 60.58405 | -3.89907 | 36915 ft | 455 kts | 131° |
| 2026-05-03 21:33 | 60.54471 | -3.79768 | 36925 ft | 458 kts | 131° |
| 2026-05-03 21:33 | 60.50509 | -3.69598 | 36922 ft | 460 kts | 131° |
| 2026-05-03 21:34 | 60.46519 | -3.59395 | 36924 ft | 462 kts | 131° |
| 2026-05-03 21:34 | 60.42518 | -3.49209 | 36914 ft | 462 kts | 131° |
| 2026-05-03 21:35 | 60.38518 | -3.39070 | 36904 ft | 459 kts | 131° |
| 2026-05-03 21:35 | 60.34531 | -3.29007 | 36914 ft | 457 kts | 131° |
| 2026-05-03 21:36 | 60.30592 | -3.19107 | 36905 ft | 454 kts | 132° |
| 2026-05-03 21:36 | 60.26638 | -3.09215 | 36905 ft | 451 kts | 132° |
| 2026-05-03 21:37 | 60.22705 | -2.99417 | 36906 ft | 449 kts | 132° |
| 2026-05-03 21:37 | 60.18778 | -2.89676 | 36911 ft | 448 kts | 132° |
| 2026-05-03 21:38 | 60.14844 | -2.79960 | 36919 ft | 449 kts | 132° |
| 2026-05-03 21:38 | 60.10897 | -2.70252 | 36921 ft | 450 kts | 132° |
| 2026-05-03 21:39 | 60.06948 | -2.60579 | 36923 ft | 452 kts | 133° |
| 2026-05-03 21:39 | 60.02954 | -2.50836 | 36927 ft | 453 kts | 133° |
| 2026-05-03 21:40 | 59.98936 | -2.41076 | 36924 ft | 454 kts | 133° |
| 2026-05-03 21:40 | 59.94912 | -2.31341 | 36920 ft | 454 kts | 133° |
| 2026-05-03 21:41 | 59.90882 | -2.21631 | 36924 ft | 454 kts | 133° |
| 2026-05-03 21:41 | 59.86848 | -2.11955 | 36881 ft | 453 kts | 133° |
| 2026-05-03 21:42 | 59.82855 | -2.02414 | 36917 ft | 451 kts | 133° |
| 2026-05-03 21:42 | 59.78845 | -1.92874 | 36930 ft | 449 kts | 133° |
| 2026-05-03 21:43 | 59.74831 | -1.83365 | 36927 ft | 448 kts | 133° |
| 2026-05-03 21:43 | 59.70818 | -1.73896 | 36928 ft | 448 kts | 133° |
| 2026-05-03 21:44 | 59.66808 | -1.64470 | 36940 ft | 448 kts | 133° |
| 2026-05-03 21:44 | 59.62789 | -1.55062 | 36937 ft | 448 kts | 133° |
| 2026-05-03 21:45 | 59.58784 | -1.45720 | 36902 ft | 448 kts | 133° |
| 2026-05-03 21:45 | 59.54540 | -1.36785 | 36928 ft | 444 kts | 143° |
| 2026-05-03 21:46 | 59.49596 | -1.29667 | 36949 ft | 439 kts | 151° |
| 2026-05-03 21:46 | 59.44466 | -1.23147 | 36940 ft | 439 kts | 152° |
| 2026-05-03 21:47 | 59.39338 | -1.16626 | 36954 ft | 439 kts | 151° |
| 2026-05-03 21:47 | 59.34213 | -1.10085 | 36961 ft | 439 kts | 151° |
| 2026-05-03 21:48 | 59.29127 | -1.03594 | 36944 ft | 438 kts | 151° |
| 2026-05-03 21:48 | 59.24023 | -0.97099 | 36954 ft | 437 kts | 151° |
| 2026-05-03 21:49 | 59.18920 | -0.90630 | 36957 ft | 437 kts | 151° |
| 2026-05-03 21:49 | 59.13821 | -0.84192 | 36964 ft | 436 kts | 151° |
| 2026-05-03 21:50 | 59.08727 | -0.77783 | 36964 ft | 436 kts | 151° |
| 2026-05-03 21:50 | 59.03635 | -0.71399 | 36964 ft | 436 kts | 151° |
| 2026-05-03 21:51 | 58.98540 | -0.65034 | 36961 ft | 435 kts | 151° |
| 2026-05-03 21:51 | 58.93452 | -0.58701 | 36967 ft | 434 kts | 151° |
| 2026-05-03 21:52 | 58.88371 | -0.52398 | 36966 ft | 434 kts | 151° |
| 2026-05-03 21:52 | 58.83317 | -0.46152 | 36969 ft | 434 kts | 151° |
| 2026-05-03 21:53 | 58.78229 | -0.39886 | 36973 ft | 434 kts | 151° |
| 2026-05-03 21:53 | 58.73135 | -0.33634 | 36975 ft | 434 kts | 151° |
| 2026-05-03 21:54 | 58.68039 | -0.27401 | 36979 ft | 434 kts | 151° |
| 2026-05-03 21:54 | 58.62936 | -0.21182 | 36981 ft | 434 kts | 151° |
| 2026-05-03 21:55 | 58.57827 | -0.14978 | 36978 ft | 435 kts | 151° |
| 2026-05-03 21:55 | 58.52717 | -0.08794 | 36984 ft | 435 kts | 152° |
| 2026-05-03 21:56 | 58.47595 | -0.02617 | 36962 ft | 435 kts | 151° |
| 2026-05-03 21:56 | 58.42508 | 0.03498 | 36978 ft | 434 kts | 151° |
| 2026-05-03 21:57 | 58.37403 | 0.09612 | 36981 ft | 432 kts | 151° |
| 2026-05-03 21:57 | 58.32310 | 0.15691 | 36982 ft | 431 kts | 152° |
| 2026-05-03 21:58 | 58.27228 | 0.21736 | 36988 ft | 430 kts | 152° |
| 2026-05-03 21:58 | 58.22153 | 0.27752 | 36986 ft | 429 kts | 152° |
| 2026-05-03 21:59 | 58.17097 | 0.33724 | 36991 ft | 428 kts | 151° |
| 2026-05-03 21:59 | 58.12074 | 0.39639 | 36991 ft | 427 kts | 151° |
| 2026-05-03 22:00 | 58.07018 | 0.45572 | 36995 ft | 427 kts | 152° |
| 2026-05-03 22:00 | 58.01958 | 0.51493 | 36998 ft | 428 kts | 152° |
| 2026-05-03 22:01 | 57.96934 | 0.57567 | 36993 ft | 431 kts | 145° |
| 2026-05-03 22:01 | 57.92531 | 0.65295 | 37002 ft | 436 kts | 133° |
| 2026-05-03 22:02 | 57.88746 | 0.74208 | 36988 ft | 436 kts | 130° |
| 2026-05-03 22:02 | 57.85034 | 0.83109 | 36989 ft | 435 kts | 130° |
| 2026-05-03 22:03 | 57.81288 | 0.92004 | 36993 ft | 434 kts | 131° |
| 2026-05-03 22:03 | 57.77528 | 1.00849 | 36990 ft | 433 kts | 131° |
| 2026-05-03 22:04 | 57.73771 | 1.09632 | 36991 ft | 432 kts | 131° |
| 2026-05-03 22:04 | 57.70013 | 1.18385 | 36993 ft | 431 kts | 131° |
| 2026-05-03 22:05 | 57.66258 | 1.27100 | 36997 ft | 430 kts | 131° |
| 2026-05-03 22:05 | 57.62499 | 1.35793 | 36993 ft | 429 kts | 131° |
| 2026-05-03 22:06 | 57.58740 | 1.44453 | 36990 ft | 429 kts | 131° |
| 2026-05-03 22:06 | 57.54984 | 1.53076 | 36990 ft | 429 kts | 132° |
| 2026-05-03 22:07 | 57.51221 | 1.61683 | 36993 ft | 428 kts | 132° |
| 2026-05-03 22:07 | 57.47455 | 1.70268 | 36995 ft | 428 kts | 132° |
| 2026-05-03 22:08 | 57.43705 | 1.78783 | 36994 ft | 428 kts | 132° |
| 2026-05-03 22:08 | 57.39925 | 1.87337 | 36994 ft | 428 kts | 133° |
| 2026-05-03 22:09 | 57.36140 | 1.95871 | 36977 ft | 428 kts | 133° |
| 2026-05-03 22:10 | 57.31096 | 2.07198 | 36991 ft | 428 kts | 133° |
| 2026-05-03 22:10 | 57.27307 | 2.15671 | 36975 ft | 427 kts | 133° |
| 2026-05-03 22:11 | 57.23513 | 2.24124 | 36975 ft | 427 kts | 133° |
| 2026-05-03 22:11 | 57.19717 | 2.32552 | 36975 ft | 427 kts | 133° |
| 2026-05-03 22:12 | 57.15917 | 2.40961 | 36963 ft | 426 kts | 133° |
| 2026-05-03 22:12 | 57.12116 | 2.49341 | 36959 ft | 426 kts | 133° |
| 2026-05-03 22:13 | 57.08319 | 2.57682 | 36944 ft | 425 kts | 133° |
| 2026-05-03 22:13 | 57.04528 | 2.65981 | 36938 ft | 424 kts | 133° |
| 2026-05-03 22:14 | 57.00737 | 2.74253 | 36947 ft | 423 kts | 133° |
| 2026-05-03 22:14 | 56.96970 | 2.82443 | 36949 ft | 422 kts | 133° |
| 2026-05-03 22:15 | 56.93180 | 2.90655 | 36951 ft | 422 kts | 134° |
| 2026-05-03 22:15 | 56.89382 | 2.98856 | 36935 ft | 422 kts | 134° |
| 2026-05-03 22:16 | 56.85582 | 3.07033 | 36974 ft | 422 kts | 134° |
| 2026-05-03 22:16 | 56.81768 | 3.15218 | 36963 ft | 424 kts | 134° |
| 2026-05-03 22:17 | 56.77935 | 3.23393 | 36948 ft | 424 kts | 136° |
| 2026-05-03 22:17 | 56.73632 | 3.30490 | 36944 ft | 417 kts | 148° |
| 2026-05-03 22:18 | 56.68876 | 3.36553 | 36945 ft | 417 kts | 149° |
| 2026-05-03 22:18 | 56.64116 | 3.42575 | 36944 ft | 417 kts | 149° |
| 2026-05-03 22:19 | 56.59363 | 3.48613 | 36941 ft | 417 kts | 149° |
| 2026-05-03 22:19 | 56.54621 | 3.54647 | 36939 ft | 416 kts | 149° |
| 2026-05-03 22:20 | 56.49886 | 3.60659 | 36933 ft | 414 kts | 149° |
| 2026-05-03 22:20 | 56.45177 | 3.66623 | 36938 ft | 413 kts | 149° |
| 2026-05-03 22:21 | 56.40506 | 3.72519 | 36954 ft | 412 kts | 149° |
| 2026-05-03 22:21 | 56.35806 | 3.78433 | 36952 ft | 411 kts | 149° |
| 2026-05-03 22:22 | 56.31118 | 3.84313 | 36950 ft | 410 kts | 149° |
| 2026-05-03 22:22 | 56.26428 | 3.90178 | 36960 ft | 411 kts | 149° |
| 2026-05-03 22:23 | 56.21734 | 3.96031 | 36967 ft | 410 kts | 149° |
| 2026-05-03 22:23 | 56.17033 | 4.01874 | 36948 ft | 411 kts | 150° |
| 2026-05-03 22:24 | 56.12325 | 4.07708 | 36957 ft | 412 kts | 150° |
| 2026-05-03 22:24 | 56.07600 | 4.13546 | 36959 ft | 412 kts | 150° |
| 2026-05-03 22:25 | 56.02896 | 4.19340 | 36960 ft | 413 kts | 150° |
| 2026-05-03 22:25 | 55.98149 | 4.25170 | 36962 ft | 414 kts | 150° |
| 2026-05-03 22:26 | 55.93389 | 4.30999 | 36953 ft | 414 kts | 150° |
| 2026-05-03 22:26 | 55.88626 | 4.36813 | 36950 ft | 414 kts | 150° |
| 2026-05-03 22:27 | 55.83862 | 4.42611 | 36949 ft | 414 kts | 150° |
| 2026-05-03 22:27 | 55.79136 | 4.48346 | 36946 ft | 413 kts | 150° |
| 2026-05-03 22:28 | 55.74386 | 4.54093 | 36942 ft | 412 kts | 150° |
| 2026-05-03 22:28 | 55.69642 | 4.59814 | 36923 ft | 412 kts | 150° |
| 2026-05-03 22:29 | 55.64912 | 4.65501 | 36935 ft | 410 kts | 150° |
| 2026-05-03 22:29 | 55.60188 | 4.71165 | 36942 ft | 410 kts | 150° |
| 2026-05-03 22:30 | 55.55467 | 4.76808 | 36939 ft | 409 kts | 150° |
| 2026-05-03 22:30 | 55.50749 | 4.82430 | 36941 ft | 409 kts | 151° |
| 2026-05-03 22:31 | 55.46020 | 4.88050 | 36944 ft | 410 kts | 151° |
| 2026-05-03 22:31 | 55.41312 | 4.93629 | 36923 ft | 410 kts | 151° |
| 2026-05-03 22:32 | 55.36575 | 4.99226 | 36935 ft | 410 kts | 151° |
| 2026-05-03 22:32 | 55.31834 | 5.04810 | 36938 ft | 410 kts | 151° |
| 2026-05-03 22:33 | 55.27078 | 5.10396 | 36930 ft | 411 kts | 151° |
| 2026-05-03 22:33 | 55.22316 | 5.15973 | 36932 ft | 411 kts | 151° |
| 2026-05-03 22:34 | 55.17551 | 5.21538 | 36934 ft | 412 kts | 151° |
| 2026-05-03 22:34 | 55.12815 | 5.27053 | 36924 ft | 412 kts | 151° |
| 2026-05-03 22:35 | 55.08050 | 5.32589 | 36928 ft | 411 kts | 151° |
| 2026-05-03 22:35 | 55.03289 | 5.38095 | 36925 ft | 410 kts | 152° |
| 2026-05-03 22:36 | 54.98193 | 5.42200 | 36944 ft | 400 kts | 167° |
| 2026-05-03 22:36 | 54.92805 | 5.44187 | 36929 ft | 394 kts | 175° |
| 2026-05-03 22:37 | 54.87395 | 5.45748 | 36910 ft | 393 kts | 175° |
| 2026-05-03 22:37 | 54.82028 | 5.47305 | 36922 ft | 393 kts | 175° |
| 2026-05-03 22:38 | 54.76639 | 5.48893 | 36923 ft | 392 kts | 174° |
| 2026-05-03 22:38 | 54.71258 | 5.50489 | 36923 ft | 392 kts | 174° |
| 2026-05-03 22:39 | 54.65880 | 5.52084 | 36922 ft | 392 kts | 174° |
| 2026-05-03 22:39 | 54.60496 | 5.53677 | 36914 ft | 392 kts | 174° |
| 2026-05-03 22:40 | 54.55121 | 5.55264 | 36921 ft | 392 kts | 174° |
| 2026-05-03 22:40 | 54.49733 | 5.56850 | 36921 ft | 392 kts | 174° |
| 2026-05-03 22:41 | 54.44346 | 5.58431 | 36920 ft | 393 kts | 174° |
| 2026-05-03 22:41 | 54.38954 | 5.60009 | 36913 ft | 393 kts | 174° |
| 2026-05-03 22:42 | 54.33590 | 5.61576 | 36916 ft | 393 kts | 174° |
| 2026-05-03 22:42 | 54.28190 | 5.63149 | 36917 ft | 394 kts | 174° |
| 2026-05-03 22:43 | 54.22782 | 5.64719 | 36910 ft | 394 kts | 174° |
| 2026-05-03 22:43 | 54.17378 | 5.66285 | 36918 ft | 394 kts | 174° |
| 2026-05-03 22:44 | 54.11966 | 5.67848 | 36922 ft | 394 kts | 174° |
| 2026-05-03 22:44 | 54.06552 | 5.69408 | 36918 ft | 394 kts | 174° |
| 2026-05-03 22:45 | 54.01147 | 5.70962 | 36917 ft | 394 kts | 174° |
| 2026-05-03 22:45 | 53.95780 | 5.72500 | 36917 ft | 394 kts | 174° |
| 2026-05-03 22:46 | 53.90372 | 5.74046 | 36910 ft | 393 kts | 174° |
| 2026-05-03 22:46 | 53.84969 | 5.75587 | 36899 ft | 393 kts | 174° |
| 2026-05-03 22:47 | 53.79580 | 5.77120 | 36908 ft | 392 kts | 174° |
| 2026-05-03 22:47 | 53.74195 | 5.78647 | 36915 ft | 392 kts | 174° |
| 2026-05-03 22:48 | 53.68818 | 5.80168 | 36914 ft | 391 kts | 174° |
| 2026-05-03 22:48 | 53.63445 | 5.81685 | 36915 ft | 391 kts | 174° |
| 2026-05-03 22:49 | 53.58109 | 5.83186 | 36917 ft | 391 kts | 174° |
| 2026-05-03 22:49 | 53.52743 | 5.84693 | 36913 ft | 391 kts | 174° |
| 2026-05-03 22:50 | 53.47387 | 5.86193 | 36914 ft | 390 kts | 174° |
| 2026-05-03 22:50 | 53.42034 | 5.87688 | 36928 ft | 390 kts | 174° |
| 2026-05-03 22:51 | 53.36689 | 5.89177 | 36937 ft | 389 kts | 174° |
| 2026-05-03 22:51 | 53.31341 | 5.90663 | 36936 ft | 389 kts | 174° |
| 2026-05-03 22:52 | 53.25996 | 5.92145 | 36940 ft | 389 kts | 174° |
| 2026-05-03 22:52 | 53.20654 | 5.93621 | 36939 ft | 389 kts | 174° |
| 2026-05-03 22:53 | 53.15312 | 5.95095 | 36938 ft | 389 kts | 174° |
| 2026-05-03 22:53 | 53.09999 | 5.96556 | 36923 ft | 389 kts | 174° |
| 2026-05-03 22:54 | 53.04616 | 5.98033 | 36933 ft | 389 kts | 174° |
| 2026-05-03 22:54 | 52.99290 | 5.99487 | 36972 ft | 394 kts | 174° |
| 2026-05-03 22:55 | 52.93903 | 6.00962 | 36929 ft | 390 kts | 174° |
| 2026-05-03 22:55 | 52.88574 | 6.02416 | 36924 ft | 385 kts | 174° |
| 2026-05-03 22:56 | 52.83308 | 6.03847 | 36917 ft | 382 kts | 175° |
| 2026-05-03 22:56 | 52.78064 | 6.05267 | 36919 ft | 381 kts | 175° |
| 2026-05-03 22:57 | 52.72816 | 6.06685 | 36938 ft | 383 kts | 175° |
| 2026-05-03 22:57 | 52.68427 | 6.07868 | 36944 ft | 385 kts | 175° |
| 2026-05-03 22:58 | 52.63155 | 6.09825 | 36946 ft | 393 kts | 166° |
| 2026-05-03 22:58 | 52.58028 | 6.13150 | 36939 ft | 397 kts | 162° |
| 2026-05-03 22:59 | 52.52903 | 6.16563 | 36931 ft | 397 kts | 162° |
| 2026-05-03 22:59 | 52.47819 | 6.19920 | 36932 ft | 396 kts | 163° |
| 2026-05-03 23:00 | 52.42720 | 6.23263 | 36930 ft | 393 kts | 163° |
| 2026-05-03 23:00 | 52.37644 | 6.26576 | 36931 ft | 391 kts | 163° |
| 2026-05-03 23:00 | 52.35129 | 6.28215 | 36734 ft | 388 kts | 163° |
| 2026-05-03 23:01 | 52.32638 | 6.29836 | 36360 ft | 384 kts | 163° |
| 2026-05-03 23:01 | 52.30169 | 6.31442 | 35958 ft | 380 kts | 163° |
| 2026-05-03 23:01 | 52.27717 | 6.33033 | 35573 ft | 377 kts | 163° |
| 2026-05-03 23:01 | 52.25288 | 6.34607 | 35204 ft | 374 kts | 164° |
| 2026-05-03 23:02 | 52.22913 | 6.36145 | 34849 ft | 371 kts | 164° |
| 2026-05-03 23:02 | 52.20498 | 6.37707 | 34466 ft | 367 kts | 164° |
| 2026-05-03 23:02 | 52.18161 | 6.39216 | 34112 ft | 364 kts | 164° |
| 2026-05-03 23:02 | 52.15813 | 6.40731 | 33690 ft | 361 kts | 165° |
| 2026-05-03 23:03 | 52.13483 | 6.42232 | 33240 ft | 359 kts | 165° |
| 2026-05-03 23:03 | 52.11165 | 6.43723 | 32797 ft | 357 kts | 165° |
| 2026-05-03 23:03 | 52.08856 | 6.45206 | 32343 ft | 356 kts | 165° |
| 2026-05-03 23:03 | 52.06560 | 6.46680 | 31931 ft | 354 kts | 165° |
| 2026-05-03 23:04 | 52.04279 | 6.48144 | 31560 ft | 351 kts | 165° |
| 2026-05-03 23:04 | 52.02012 | 6.49597 | 31168 ft | 349 kts | 166° |
| 2026-05-03 23:04 | 51.99763 | 6.51038 | 30781 ft | 344 kts | 166° |
| 2026-05-03 23:04 | 51.97577 | 6.52442 | 30113 ft | 334 kts | 166° |
| 2026-05-03 23:05 | 51.95399 | 6.53829 | 28679 ft | 341 kts | 166° |
| 2026-05-03 23:05 | 51.93142 | 6.55256 | 27037 ft | 354 kts | 165° |
| 2026-05-03 23:05 | 51.90821 | 6.56728 | 25602 ft | 361 kts | 164° |
| 2026-05-03 23:05 | 51.88482 | 6.58223 | 24362 ft | 361 kts | 163° |
| 2026-05-03 23:06 | 51.86143 | 6.59716 | 23090 ft | 361 kts | 163° |
| 2026-05-03 23:06 | 51.83810 | 6.61201 | 21782 ft | 358 kts | 163° |
| 2026-05-03 23:06 | 51.81510 | 6.62662 | 20646 ft | 352 kts | 163° |
| 2026-05-03 23:06 | 51.79201 | 6.63872 | 19656 ft | 345 kts | 170° |
| 2026-05-03 23:07 | 51.76849 | 6.64626 | 18902 ft | 346 kts | 176° |
| 2026-05-03 23:07 | 51.74470 | 6.65136 | 18533 ft | 343 kts | 176° |
| 2026-05-03 23:07 | 51.72124 | 6.65651 | 18272 ft | 337 kts | 176° |
| 2026-05-03 23:07 | 51.69841 | 6.66159 | 17921 ft | 334 kts | 176° |
| 2026-05-03 23:08 | 51.67544 | 6.66671 | 17486 ft | 332 kts | 175° |
| 2026-05-03 23:08 | 51.65254 | 6.67182 | 17080 ft | 329 kts | 175° |
| 2026-05-03 23:08 | 51.63076 | 6.67675 | 16862 ft | 309 kts | 176° |
| 2026-05-03 23:08 | 51.60962 | 6.68148 | 16634 ft | 303 kts | 175° |
| 2026-05-03 23:09 | 51.58897 | 6.68609 | 16490 ft | 296 kts | 175° |
| 2026-05-03 23:09 | 51.56875 | 6.69061 | 16268 ft | 291 kts | 175° |
| 2026-05-03 23:09 | 51.54921 | 6.69822 | 15831 ft | 295 kts | 158° |
| 2026-05-03 23:09 | 51.53287 | 6.71896 | 15404 ft | 308 kts | 132° |
| 2026-05-03 23:10 | 51.52258 | 6.74915 | 15083 ft | 310 kts | 110° |
| 2026-05-03 23:10 | 51.51741 | 6.78283 | 14665 ft | 307 kts | 105° |
| 2026-05-03 23:10 | 51.51286 | 6.81603 | 13929 ft | 304 kts | 105° |
| 2026-05-03 23:10 | 51.50823 | 6.84915 | 13092 ft | 304 kts | 105° |
| 2026-05-03 23:11 | 51.50347 | 6.88203 | 12312 ft | 301 kts | 106° |
| 2026-05-03 23:11 | 51.49867 | 6.91459 | 11584 ft | 297 kts | 107° |
| 2026-05-03 23:11 | 51.49404 | 6.94670 | 10864 ft | 294 kts | 102° |
| 2026-05-03 23:11 | 51.49484 | 6.97927 | 10088 ft | 297 kts | 73° |
| 2026-05-03 23:12 | 51.50480 | 7.00812 | 9289 ft | 296 kts | 52° |
| 2026-05-03 23:12 | 51.51736 | 7.03403 | 8542 ft | 292 kts | 52° |
| 2026-05-03 23:12 | 51.52965 | 7.05981 | 7805 ft | 289 kts | 52° |
| 2026-05-03 23:12 | 51.54171 | 7.08531 | 7113 ft | 285 kts | 52° |
| 2026-05-03 23:13 | 51.55359 | 7.11055 | 6419 ft | 282 kts | 52° |
| 2026-05-03 23:13 | 51.56518 | 7.13523 | 5709 ft | 278 kts | 52° |
| 2026-05-03 23:13 | 51.57691 | 7.16024 | 4980 ft | 275 kts | 52° |
| 2026-05-03 23:13 | 51.58841 | 7.18480 | 4492 ft | 279 kts | 52° |
| 2026-05-03 23:14 | 51.60002 | 7.20962 | 4229 ft | 277 kts | 52° |
| 2026-05-03 23:14 | 51.61149 | 7.23419 | 3985 ft | 273 kts | 52° |
| 2026-05-03 23:14 | 51.62284 | 7.25852 | 3661 ft | 271 kts | 51° |
| 2026-05-03 23:14 | 51.63385 | 7.28313 | 3278 ft | 269 kts | 59° |
| 2026-05-03 23:15 | 51.63842 | 7.31200 | 3014 ft | 270 kts | 95° |
| 2026-05-03 23:15 | 51.63314 | 7.34088 | 3013 ft | 269 kts | 124° |
| 2026-05-03 23:15 | 51.62073 | 7.36227 | 2997 ft | 256 kts | 152° |
| 2026-05-03 23:15 | 51.60481 | 7.37184 | 3002 ft | 238 kts | 178° |
| 2026-05-03 23:16 | 51.58862 | 7.37152 | 3003 ft | 229 kts | 197° |
| 2026-05-03 23:16 | 51.57383 | 7.36320 | 3014 ft | 225 kts | 208° |
| 2026-05-03 23:16 | 51.56116 | 7.34954 | 2999 ft | 216 kts | 232° |
| 2026-05-03 23:16 | 51.55229 | 7.33004 | 3011 ft | 220 kts | 235° |
| 2026-05-03 23:17 | 51.54303 | 7.31021 | 3015 ft | 224 kts | 234° |
| 2026-05-03 23:17 | 51.53369 | 7.29039 | 3006 ft | 221 kts | 234° |
| 2026-05-03 23:17 | 51.52446 | 7.27075 | 3000 ft | 219 kts | 235° |
| 2026-05-03 23:17 | 51.51545 | 7.25151 | 2994 ft | 218 kts | 235° |
| 2026-05-03 23:18 | 51.50638 | 7.23217 | 3001 ft | 216 kts | 234° |
| 2026-05-03 23:18 | 51.49732 | 7.21279 | 3013 ft | 219 kts | 234° |
| 2026-05-03 23:18 | 51.48827 | 7.19349 | 3006 ft | 213 kts | 234° |
| 2026-05-03 23:18 | 51.47942 | 7.17465 | 3007 ft | 209 kts | 234° |
| 2026-05-03 23:19 | 51.47069 | 7.15604 | 3006 ft | 209 kts | 234° |
| 2026-05-03 23:19 | 51.46194 | 7.13739 | 3012 ft | 210 kts | 234° |
| 2026-05-03 23:19 | 51.45315 | 7.11865 | 3007 ft | 210 kts | 234° |
| 2026-05-03 23:19 | 51.44436 | 7.09995 | 3004 ft | 210 kts | 234° |
| 2026-05-03 23:20 | 51.43557 | 7.08125 | 3008 ft | 211 kts | 234° |
| 2026-05-03 23:20 | 51.42673 | 7.06247 | 3010 ft | 211 kts | 234° |
| 2026-05-03 23:20 | 51.41787 | 7.04369 | 3005 ft | 210 kts | 234° |
| 2026-05-03 23:20 | 51.40926 | 7.02546 | 2983 ft | 198 kts | 234° |
| 2026-05-03 23:21 | 51.40135 | 7.00873 | 2971 ft | 179 kts | 234° |
| 2026-05-03 23:21 | 51.39421 | 6.99359 | 2960 ft | 161 kts | 234° |
| 2026-05-03 23:21 | 51.38730 | 6.97904 | 3037 ft | 170 kts | 234° |
| 2026-05-03 23:21 | 51.38016 | 6.96390 | 2984 ft | 169 kts | 234° |
| 2026-05-03 23:22 | 51.36607 | 6.93417 | 2485 ft | 165 kts | 235° |
| 2026-05-03 23:22 | 51.35925 | 6.91975 | 2284 ft | 158 kts | 235° |
| 2026-05-03 23:22 | 51.35284 | 6.90623 | 2058 ft | 149 kts | 234° |
| 2026-05-03 23:23 | 51.34684 | 6.89359 | 1841 ft | 135 kts | 234° |
| 2026-05-03 23:23 | 51.34163 | 6.88263 | 1686 ft | 116 kts | 234° |
| 2026-05-03 23:23 | 51.33655 | 6.87188 | 1553 ft | 126 kts | 234° |
| 2026-05-03 23:23 | 51.33122 | 6.86065 | 1360 ft | 127 kts | 234° |
| 2026-05-03 23:24 | 51.32587 | 6.84936 | 1200 ft | 128 kts | 233° |
| 2026-05-03 23:24 | 51.32043 | 6.83790 | 1024 ft | 131 kts | 232° |
| 2026-05-03 23:24 | 51.31486 | 6.82617 | 835 ft | 133 kts | 232° |
| 2026-05-03 23:24 | 51.30921 | 6.81429 | 670 ft | 135 kts | 232° |
| 2026-05-03 23:25 | 51.30356 | 6.80236 | 483 ft | 134 kts | 232° |
| 2026-05-03 23:25 | 51.29794 | 6.79058 | 307 ft | 133 kts | 232° |
| 2026-05-03 23:25 | 51.29234 | 6.77881 | 165 ft | 134 kts | 231° |
| 2026-05-03 23:25 | 51.28710 | 6.76780 | 134 ft | 108 kts | 233° |
| 2026-05-03 23:26 | 51.28326 | 6.75971 | 134 ft | 83 kts | 233° |
| 2026-05-03 23:26 | 51.28028 | 6.75343 | 123 ft | 27 kts | 233° |
| 2026-05-03 23:26 | 51.27950 | 6.75276 | 127 ft | 16 kts | 175° |
| 2026-05-03 23:26 | 51.27880 | 6.75320 | 129 ft | 0 kts | 153° |
| 2026-05-03 23:27 | 51.27849 | 6.75350 | 125 ft | 14 kts | 139° |
| 2026-05-03 23:27 | 51.27892 | 6.75522 | 127 ft | 28 kts | 52° |
| 2026-05-03 23:27 | 51.28012 | 6.75774 | 124 ft | 29 kts | 52° |
| 2026-05-03 23:27 | 51.28109 | 6.75997 | 129 ft | 13 kts | 90° |
| 2026-05-03 23:28 | 51.28047 | 6.76048 | 134 ft | 6 kts | 180° |
| 2026-05-03 23:28 | 51.28031 | 6.76070 | 135 ft | 4 kts | 118° |
| 2026-05-03 23:28 | 51.28027 | 6.76082 | 135 ft | 7 kts | 121° |
| 2026-05-03 23:28 | 51.28004 | 6.76146 | 135 ft | 4 kts | 119° |
| 2026-05-03 23:29 | 51.27997 | 6.76165 | 135 ft | 0 kts | 119° |
| 2026-05-03 23:29 | 51.27997 | 6.76166 | 135 ft | 0 kts | 119° |